sensor_id;sensor_type;location;lat;lon;timestamp;temperature;humidity
6738;DHT22;3406;49.902;8.596;2023-02-26T00:01:54;0.90;63.00
6738;DHT22;3406;49.902;8.596;2023-02-26T00:04:22;1.00;63.10
6738;DHT22;3406;49.902;8.596;2023-02-26T00:06:49;0.90;63.00
6738;DHT22;3406;49.902;8.596;2023-02-26T00:09:20;1.00;63.00
6738;DHT22;3406;49.902;8.596;2023-02-26T00:11:48;0.90;63.00
6738;DHT22;3406;49.902;8.596;2023-02-26T00:14:15;1.00;63.00
6738;DHT22;3406;49.902;8.596;2023-02-26T00:16:46;0.90;63.00
6738;DHT22;3406;49.902;8.596;2023-02-26T00:19:16;0.90;63.00
6738;DHT22;3406;49.902;8.596;2023-02-26T00:21:43;0.90;63.10
6738;DHT22;3406;49.902;8.596;2023-02-26T00:24:09;0.80;63.10
6738;DHT22;3406;49.902;8.596;2023-02-26T00:26:36;0.80;63.20
6738;DHT22;3406;49.902;8.596;2023-02-26T00:29:03;0.80;63.30
6738;DHT22;3406;49.902;8.596;2023-02-26T00:31:30;0.80;63.40
6738;DHT22;3406;49.902;8.596;2023-02-26T00:33:59;0.80;63.50
6738;DHT22;3406;49.902;8.596;2023-02-26T00:36:35;0.80;63.50
6738;DHT22;3406;49.902;8.596;2023-02-26T00:39:08;0.70;63.40
6738;DHT22;3406;49.902;8.596;2023-02-26T00:41:39;0.70;63.40
6738;DHT22;3406;49.902;8.596;2023-02-26T00:44:06;0.60;63.50
6738;DHT22;3406;49.902;8.596;2023-02-26T00:46:38;0.60;63.70
6738;DHT22;3406;49.902;8.596;2023-02-26T00:49:17;0.60;63.80
6738;DHT22;3406;49.902;8.596;2023-02-26T00:51:51;0.70;64.00
6738;DHT22;3406;49.902;8.596;2023-02-26T00:54:20;0.70;64.00
6738;DHT22;3406;49.902;8.596;2023-02-26T00:56:48;0.70;63.90
6738;DHT22;3406;49.902;8.596;2023-02-26T00:59:15;0.70;63.90
6738;DHT22;3406;49.902;8.596;2023-02-26T01:01:42;0.70;63.90
6738;DHT22;3406;49.902;8.596;2023-02-26T01:04:12;0.70;64.00
6738;DHT22;3406;49.902;8.596;2023-02-26T01:06:43;0.60;64.00
6738;DHT22;3406;49.902;8.596;2023-02-26T01:09:16;0.70;64.30
6738;DHT22;3406;49.902;8.596;2023-02-26T01:11:46;0.60;64.30
6738;DHT22;3406;49.902;8.596;2023-02-26T01:14:13;0.60;64.30
6738;DHT22;3406;49.902;8.596;2023-02-26T01:16:46;0.60;64.40
6738;DHT22;3406;49.902;8.596;2023-02-26T01:19:23;0.70;64.60
6738;DHT22;3406;49.902;8.596;2023-02-26T01:21:55;0.60;64.60
6738;DHT22;3406;49.902;8.596;2023-02-26T01:24:28;0.60;64.60
6738;DHT22;3406;49.902;8.596;2023-02-26T01:26:55;0.70;64.80
6738;DHT22;3406;49.902;8.596;2023-02-26T01:29:23;0.70;64.80
6738;DHT22;3406;49.902;8.596;2023-02-26T01:31:53;0.70;64.90
6738;DHT22;3406;49.902;8.596;2023-02-26T01:34:29;0.70;65.00
6738;DHT22;3406;49.902;8.596;2023-02-26T01:37:03;0.70;65.10
6738;DHT22;3406;49.902;8.596;2023-02-26T01:39:38;0.70;65.20
6738;DHT22;3406;49.902;8.596;2023-02-26T01:42:11;0.70;65.30
6738;DHT22;3406;49.902;8.596;2023-02-26T01:44:45;0.70;65.30
6738;DHT22;3406;49.902;8.596;2023-02-26T01:47:16;0.70;65.30
6738;DHT22;3406;49.902;8.596;2023-02-26T01:49:45;0.70;65.30
6738;DHT22;3406;49.902;8.596;2023-02-26T01:55:12;0.80;65.50
6738;DHT22;3406;49.902;8.596;2023-02-26T01:57:39;0.70;65.50
6738;DHT22;3406;49.902;8.596;2023-02-26T02:00:08;0.80;65.60
6738;DHT22;3406;49.902;8.596;2023-02-26T02:02:35;0.80;65.60
6738;DHT22;3406;49.902;8.596;2023-02-26T02:05:07;0.80;65.60
6738;DHT22;3406;49.902;8.596;2023-02-26T02:07:37;0.80;65.70
6738;DHT22;3406;49.902;8.596;2023-02-26T02:10:04;0.80;65.70
6738;DHT22;3406;49.902;8.596;2023-02-26T02:12:35;0.80;65.80
6738;DHT22;3406;49.902;8.596;2023-02-26T02:15:08;0.80;65.90
6738;DHT22;3406;49.902;8.596;2023-02-26T02:17:40;0.80;65.90
6738;DHT22;3406;49.902;8.596;2023-02-26T02:20:35;0.80;66.00
6738;DHT22;3406;49.902;8.596;2023-02-26T02:23:10;0.80;66.00
6738;DHT22;3406;49.902;8.596;2023-02-26T02:26:06;0.70;66.00
6738;DHT22;3406;49.902;8.596;2023-02-26T02:28:43;0.60;66.00
6738;DHT22;3406;49.902;8.596;2023-02-26T02:31:19;0.60;66.30
6738;DHT22;3406;49.902;8.596;2023-02-26T02:33:51;0.50;66.40
6738;DHT22;3406;49.902;8.596;2023-02-26T02:36:24;0.50;66.50
6738;DHT22;3406;49.902;8.596;2023-02-26T02:38:54;0.50;66.60
6738;DHT22;3406;49.902;8.596;2023-02-26T02:41:26;0.50;66.60
6738;DHT22;3406;49.902;8.596;2023-02-26T02:43:59;0.50;66.60
6738;DHT22;3406;49.902;8.596;2023-02-26T02:46:29;0.50;66.60
6738;DHT22;3406;49.902;8.596;2023-02-26T02:48:59;0.40;66.60
6738;DHT22;3406;49.902;8.596;2023-02-26T02:51:30;0.40;66.70
6738;DHT22;3406;49.902;8.596;2023-02-26T02:54:03;0.50;66.90
6738;DHT22;3406;49.902;8.596;2023-02-26T02:56:34;0.50;66.80
6738;DHT22;3406;49.902;8.596;2023-02-26T02:59:15;0.50;66.80
6738;DHT22;3406;49.902;8.596;2023-02-26T03:01:47;0.50;66.90
6738;DHT22;3406;49.902;8.596;2023-02-26T03:04:15;0.50;66.90
6738;DHT22;3406;49.902;8.596;2023-02-26T03:06:42;0.60;67.00
6738;DHT22;3406;49.902;8.596;2023-02-26T03:09:11;0.60;66.90
6738;DHT22;3406;49.902;8.596;2023-02-26T03:11:38;0.60;66.90
6738;DHT22;3406;49.902;8.596;2023-02-26T03:14:05;0.70;67.70
6738;DHT22;3406;49.902;8.596;2023-02-26T03:16:54;0.70;67.10
6738;DHT22;3406;49.902;8.596;2023-02-26T03:19:28;0.80;67.20
6738;DHT22;3406;49.902;8.596;2023-02-26T03:22:00;0.80;67.20
6738;DHT22;3406;49.902;8.596;2023-02-26T03:24:31;0.80;67.20
6738;DHT22;3406;49.902;8.596;2023-02-26T03:27:06;0.80;67.20
6738;DHT22;3406;49.902;8.596;2023-02-26T03:29:39;0.80;67.30
6738;DHT22;3406;49.902;8.596;2023-02-26T03:32:13;0.80;67.50
6738;DHT22;3406;49.902;8.596;2023-02-26T03:34:46;0.80;67.60
6738;DHT22;3406;49.902;8.596;2023-02-26T03:37:17;0.70;67.60
6738;DHT22;3406;49.902;8.596;2023-02-26T03:39:47;0.70;67.70
6738;DHT22;3406;49.902;8.596;2023-02-26T03:42:19;0.70;67.80
6738;DHT22;3406;49.902;8.596;2023-02-26T03:44:51;0.70;67.80
6738;DHT22;3406;49.902;8.596;2023-02-26T03:47:20;0.70;67.90
6738;DHT22;3406;49.902;8.596;2023-02-26T03:49:51;0.70;67.90
6738;DHT22;3406;49.902;8.596;2023-02-26T03:52:20;0.70;67.90
6738;DHT22;3406;49.902;8.596;2023-02-26T03:54:52;0.70;68.00
6738;DHT22;3406;49.902;8.596;2023-02-26T03:57:21;0.70;68.00
6738;DHT22;3406;49.902;8.596;2023-02-26T03:59:47;0.70;68.00
6738;DHT22;3406;49.902;8.596;2023-02-26T04:02:17;0.70;68.00
6738;DHT22;3406;49.902;8.596;2023-02-26T04:04:48;0.60;68.00
6738;DHT22;3406;49.902;8.596;2023-02-26T04:07:17;0.60;68.00
6738;DHT22;3406;49.902;8.596;2023-02-26T04:09:46;0.60;68.00
6738;DHT22;3406;49.902;8.596;2023-02-26T04:12:13;0.60;68.10
6738;DHT22;3406;49.902;8.596;2023-02-26T04:14:40;0.60;68.20
6738;DHT22;3406;49.902;8.596;2023-02-26T04:17:07;0.50;68.10
6738;DHT22;3406;49.902;8.596;2023-02-26T04:19:34;0.50;68.20
6738;DHT22;3406;49.902;8.596;2023-02-26T04:22:02;0.50;68.20
6738;DHT22;3406;49.902;8.596;2023-02-26T04:24:28;0.50;68.30
6738;DHT22;3406;49.902;8.596;2023-02-26T04:26:55;0.50;68.50
6738;DHT22;3406;49.902;8.596;2023-02-26T04:29:21;0.50;68.50
6738;DHT22;3406;49.902;8.596;2023-02-26T04:31:48;0.40;68.50
6738;DHT22;3406;49.902;8.596;2023-02-26T04:34:15;0.40;68.50
6738;DHT22;3406;49.902;8.596;2023-02-26T04:36:41;0.40;68.50
6738;DHT22;3406;49.902;8.596;2023-02-26T04:39:09;0.40;68.70
6738;DHT22;3406;49.902;8.596;2023-02-26T04:41:36;0.30;68.60
6738;DHT22;3406;49.902;8.596;2023-02-26T04:44:03;0.30;68.70
6738;DHT22;3406;49.902;8.596;2023-02-26T04:46:30;0.30;68.80
6738;DHT22;3406;49.902;8.596;2023-02-26T04:48:57;0.30;68.90
6738;DHT22;3406;49.902;8.596;2023-02-26T04:51:24;0.30;69.60
6738;DHT22;3406;49.902;8.596;2023-02-26T04:53:51;0.20;68.90
6738;DHT22;3406;49.902;8.596;2023-02-26T04:56:19;0.20;69.00
6738;DHT22;3406;49.902;8.596;2023-02-26T04:58:46;0.10;69.10
6738;DHT22;3406;49.902;8.596;2023-02-26T05:01:13;0.10;69.20
6738;DHT22;3406;49.902;8.596;2023-02-26T05:03:40;0.10;69.30
6738;DHT22;3406;49.902;8.596;2023-02-26T05:06:07;0.10;69.40
6738;DHT22;3406;49.902;8.596;2023-02-26T05:08:33;0.10;69.60
6738;DHT22;3406;49.902;8.596;2023-02-26T05:11:00;0.10;69.70
6738;DHT22;3406;49.902;8.596;2023-02-26T05:13:28;0.10;69.80
6738;DHT22;3406;49.902;8.596;2023-02-26T05:15:55;0.00;69.80
6738;DHT22;3406;49.902;8.596;2023-02-26T05:18:21;0.00;69.80
6738;DHT22;3406;49.902;8.596;2023-02-26T05:20:51;0.00;70.00
6738;DHT22;3406;49.902;8.596;2023-02-26T05:23:19;0.00;70.10
6738;DHT22;3406;49.902;8.596;2023-02-26T05:25:46;0.00;70.20
6738;DHT22;3406;49.902;8.596;2023-02-26T05:28:13;0.00;70.20
6738;DHT22;3406;49.902;8.596;2023-02-26T05:30:41;0.00;70.20
6738;DHT22;3406;49.902;8.596;2023-02-26T05:33:08;0.00;70.40
6738;DHT22;3406;49.902;8.596;2023-02-26T05:35:35;0.00;70.40
6738;DHT22;3406;49.902;8.596;2023-02-26T05:38:01;0.00;70.50
6738;DHT22;3406;49.902;8.596;2023-02-26T05:40:28;0.00;70.50
6738;DHT22;3406;49.902;8.596;2023-02-26T05:42:55;0.00;70.60
6738;DHT22;3406;49.902;8.596;2023-02-26T05:45:21;0.00;70.60
6738;DHT22;3406;49.902;8.596;2023-02-26T05:47:49;0.00;70.70
6738;DHT22;3406;49.902;8.596;2023-02-26T05:50:16;0.00;70.80
6738;DHT22;3406;49.902;8.596;2023-02-26T05:52:43;0.00;70.90
6738;DHT22;3406;49.902;8.596;2023-02-26T05:55:09;-0.10;70.90
6738;DHT22;3406;49.902;8.596;2023-02-26T05:57:36;-0.10;71.10
6738;DHT22;3406;49.902;8.596;2023-02-26T06:00:04;-0.10;71.20
6738;DHT22;3406;49.902;8.596;2023-02-26T06:02:31;-0.10;71.30
6738;DHT22;3406;49.902;8.596;2023-02-26T06:04:59;-0.10;71.30
6738;DHT22;3406;49.902;8.596;2023-02-26T06:07:26;-0.10;71.40
6738;DHT22;3406;49.902;8.596;2023-02-26T06:09:53;-0.10;71.40
6738;DHT22;3406;49.902;8.596;2023-02-26T06:12:20;-0.10;71.50
6738;DHT22;3406;49.902;8.596;2023-02-26T06:14:46;-0.10;71.60
6738;DHT22;3406;49.902;8.596;2023-02-26T06:17:13;-0.10;71.50
6738;DHT22;3406;49.902;8.596;2023-02-26T06:19:40;-0.10;71.60
6738;DHT22;3406;49.902;8.596;2023-02-26T06:22:07;-0.10;71.60
6738;DHT22;3406;49.902;8.596;2023-02-26T06:24:34;-0.10;71.70
6738;DHT22;3406;49.902;8.596;2023-02-26T06:27:01;-0.10;71.70
6738;DHT22;3406;49.902;8.596;2023-02-26T06:29:27;-0.10;71.70
6738;DHT22;3406;49.902;8.596;2023-02-26T06:31:54;-0.10;71.70
6738;DHT22;3406;49.902;8.596;2023-02-26T06:34:21;-0.10;71.70
6738;DHT22;3406;49.902;8.596;2023-02-26T06:36:48;-0.10;71.70
6738;DHT22;3406;49.902;8.596;2023-02-26T06:39:16;-0.10;71.70
6738;DHT22;3406;49.902;8.596;2023-02-26T06:41:43;-0.10;71.70
6738;DHT22;3406;49.902;8.596;2023-02-26T06:44:09;-0.10;71.70
6738;DHT22;3406;49.902;8.596;2023-02-26T06:46:36;0.00;71.90
6738;DHT22;3406;49.902;8.596;2023-02-26T06:49:03;0.00;71.90
6738;DHT22;3406;49.902;8.596;2023-02-26T06:51:30;0.00;71.90
6738;DHT22;3406;49.902;8.596;2023-02-26T06:53:56;0.00;71.80
6738;DHT22;3406;49.902;8.596;2023-02-26T06:56:24;0.00;71.90
6738;DHT22;3406;49.902;8.596;2023-02-26T06:58:51;0.00;71.90
6738;DHT22;3406;49.902;8.596;2023-02-26T07:01:18;0.10;71.90
6738;DHT22;3406;49.902;8.596;2023-02-26T07:03:45;0.00;71.80
6738;DHT22;3406;49.902;8.596;2023-02-26T07:06:16;0.10;71.90
6738;DHT22;3406;49.902;8.596;2023-02-26T07:08:43;0.10;71.90
6738;DHT22;3406;49.902;8.596;2023-02-26T07:11:09;0.20;71.90
6738;DHT22;3406;49.902;8.596;2023-02-26T07:13:38;0.20;71.80
6738;DHT22;3406;49.902;8.596;2023-02-26T07:16:05;0.30;71.90
6738;DHT22;3406;49.902;8.596;2023-02-26T07:18:32;0.30;71.90
6738;DHT22;3406;49.902;8.596;2023-02-26T07:20:59;0.40;71.80
6738;DHT22;3406;49.902;8.596;2023-02-26T07:23:26;0.50;71.80
6738;DHT22;3406;49.902;8.596;2023-02-26T07:25:53;0.50;71.70
6738;DHT22;3406;49.902;8.596;2023-02-26T07:28:20;0.50;71.60
6738;DHT22;3406;49.902;8.596;2023-02-26T07:30:48;0.60;71.50
6738;DHT22;3406;49.902;8.596;2023-02-26T07:33:15;0.60;71.50
6738;DHT22;3406;49.902;8.596;2023-02-26T07:35:42;0.60;71.40
6738;DHT22;3406;49.902;8.596;2023-02-26T07:38:09;0.60;71.30
6738;DHT22;3406;49.902;8.596;2023-02-26T07:40:35;0.60;71.20
6738;DHT22;3406;49.902;8.596;2023-02-26T07:43:02;0.70;71.30
6738;DHT22;3406;49.902;8.596;2023-02-26T07:45:29;0.70;71.20
6738;DHT22;3406;49.902;8.596;2023-02-26T07:47:57;0.70;71.00
6738;DHT22;3406;49.902;8.596;2023-02-26T07:50:24;0.80;71.00
6738;DHT22;3406;49.902;8.596;2023-02-26T07:52:51;0.80;70.90
6738;DHT22;3406;49.902;8.596;2023-02-26T07:55:19;0.90;70.80
6738;DHT22;3406;49.902;8.596;2023-02-26T07:57:46;0.90;70.60
6738;DHT22;3406;49.902;8.596;2023-02-26T08:00:14;0.90;70.50
6738;DHT22;3406;49.902;8.596;2023-02-26T08:02:41;0.90;70.40
6738;DHT22;3406;49.902;8.596;2023-02-26T08:05:09;1.00;70.30
6738;DHT22;3406;49.902;8.596;2023-02-26T08:07:35;1.10;70.30
6738;DHT22;3406;49.902;8.596;2023-02-26T08:10:03;1.10;70.20
6738;DHT22;3406;49.902;8.596;2023-02-26T08:12:30;1.20;70.20
6738;DHT22;3406;49.902;8.596;2023-02-26T08:14:57;1.20;70.00
6738;DHT22;3406;49.902;8.596;2023-02-26T08:17:24;1.20;69.90
6738;DHT22;3406;49.902;8.596;2023-02-26T08:19:50;1.20;69.80
6738;DHT22;3406;49.902;8.596;2023-02-26T08:22:19;1.20;69.70
6738;DHT22;3406;49.902;8.596;2023-02-26T08:24:46;1.20;69.70
6738;DHT22;3406;49.902;8.596;2023-02-26T08:27:12;1.20;69.50
6738;DHT22;3406;49.902;8.596;2023-02-26T08:29:39;1.30;70.20
6738;DHT22;3406;49.902;8.596;2023-02-26T08:32:06;1.30;69.30
6738;DHT22;3406;49.902;8.596;2023-02-26T08:34:32;1.40;69.30
6738;DHT22;3406;49.902;8.596;2023-02-26T08:36:59;1.40;68.90
6738;DHT22;3406;49.902;8.596;2023-02-26T08:39:27;1.40;68.90
6738;DHT22;3406;49.902;8.596;2023-02-26T08:41:57;1.40;68.80
6738;DHT22;3406;49.902;8.596;2023-02-26T08:44:24;1.40;68.60
6738;DHT22;3406;49.902;8.596;2023-02-26T08:46:50;1.50;68.40
6738;DHT22;3406;49.902;8.596;2023-02-26T08:49:17;1.50;68.30
6738;DHT22;3406;49.902;8.596;2023-02-26T08:51:43;1.60;68.20
6738;DHT22;3406;49.902;8.596;2023-02-26T08:54:10;1.60;67.90
6738;DHT22;3406;49.902;8.596;2023-02-26T08:56:38;1.60;67.80
6738;DHT22;3406;49.902;8.596;2023-02-26T08:59:05;1.60;67.70
6738;DHT22;3406;49.902;8.596;2023-02-26T09:01:32;1.60;67.70
6738;DHT22;3406;49.902;8.596;2023-02-26T09:03:58;1.70;67.70
6738;DHT22;3406;49.902;8.596;2023-02-26T09:06:25;1.70;67.50
6738;DHT22;3406;49.902;8.596;2023-02-26T09:08:52;1.70;67.30
6738;DHT22;3406;49.902;8.596;2023-02-26T09:11:18;1.70;67.00
6738;DHT22;3406;49.902;8.596;2023-02-26T09:13:46;1.80;67.10
6738;DHT22;3406;49.902;8.596;2023-02-26T09:16:13;1.90;67.00
6738;DHT22;3406;49.902;8.596;2023-02-26T09:18:39;1.90;66.70
6738;DHT22;3406;49.902;8.596;2023-02-26T09:21:06;1.90;66.40
6738;DHT22;3406;49.902;8.596;2023-02-26T09:23:33;1.90;66.10
6738;DHT22;3406;49.902;8.596;2023-02-26T09:25:59;2.00;66.10
6738;DHT22;3406;49.902;8.596;2023-02-26T09:28:26;2.00;65.90
6738;DHT22;3406;49.902;8.596;2023-02-26T09:30:54;2.00;65.80
6738;DHT22;3406;49.902;8.596;2023-02-26T09:33:21;2.10;65.30
6738;DHT22;3406;49.902;8.596;2023-02-26T09:35:48;2.20;65.30
6738;DHT22;3406;49.902;8.596;2023-02-26T09:38:15;2.20;65.10
6738;DHT22;3406;49.902;8.596;2023-02-26T09:40:46;2.30;65.00
6738;DHT22;3406;49.902;8.596;2023-02-26T09:43:28;2.30;64.70
6738;DHT22;3406;49.902;8.596;2023-02-26T09:46:03;2.40;64.40
6738;DHT22;3406;49.902;8.596;2023-02-26T09:48:31;2.50;64.10
6738;DHT22;3406;49.902;8.596;2023-02-26T09:50:59;2.50;63.70
6738;DHT22;3406;49.902;8.596;2023-02-26T09:53:28;2.50;63.60
6738;DHT22;3406;49.902;8.596;2023-02-26T09:56:00;2.50;63.50
6738;DHT22;3406;49.902;8.596;2023-02-26T09:58:31;2.60;63.20
6738;DHT22;3406;49.902;8.596;2023-02-26T10:01:05;2.50;62.40
6738;DHT22;3406;49.902;8.596;2023-02-26T10:03:49;2.50;61.80
6738;DHT22;3406;49.902;8.596;2023-02-26T10:06:22;2.60;61.40
6738;DHT22;3406;49.902;8.596;2023-02-26T10:11:45;2.70;60.30
6738;DHT22;3406;49.902;8.596;2023-02-26T10:14:17;2.80;60.10
6738;DHT22;3406;49.902;8.596;2023-02-26T10:16:49;2.90;59.90
6738;DHT22;3406;49.902;8.596;2023-02-26T10:19:19;3.00;60.30
6738;DHT22;3406;49.902;8.596;2023-02-26T10:21:51;3.00;59.30
6738;DHT22;3406;49.902;8.596;2023-02-26T10:24:23;3.20;59.30
6738;DHT22;3406;49.902;8.596;2023-02-26T10:26:55;3.30;59.10
6738;DHT22;3406;49.902;8.596;2023-02-26T10:29:31;3.40;59.20
6738;DHT22;3406;49.902;8.596;2023-02-26T10:32:11;3.40;59.00
6738;DHT22;3406;49.902;8.596;2023-02-26T10:34:46;3.40;58.80
6738;DHT22;3406;49.902;8.596;2023-02-26T10:37:18;3.40;58.80
6738;DHT22;3406;49.902;8.596;2023-02-26T10:39:48;3.40;58.60
6738;DHT22;3406;49.902;8.596;2023-02-26T10:42:19;3.40;58.60
6738;DHT22;3406;49.902;8.596;2023-02-26T10:44:54;3.50;58.70
6738;DHT22;3406;49.902;8.596;2023-02-26T10:47:31;3.60;58.60
6738;DHT22;3406;49.902;8.596;2023-02-26T10:50:01;3.70;58.30
6738;DHT22;3406;49.902;8.596;2023-02-26T10:52:31;3.80;58.20
6738;DHT22;3406;49.902;8.596;2023-02-26T10:55:07;3.80;57.90
6738;DHT22;3406;49.902;8.596;2023-02-26T10:57:46;4.00;57.90
6738;DHT22;3406;49.902;8.596;2023-02-26T11:00:16;4.00;57.70
6738;DHT22;3406;49.902;8.596;2023-02-26T11:02:48;4.10;57.50
6738;DHT22;3406;49.902;8.596;2023-02-26T11:05:18;4.10;57.20
6738;DHT22;3406;49.902;8.596;2023-02-26T11:07:48;4.10;57.00
6738;DHT22;3406;49.902;8.596;2023-02-26T11:10:18;4.10;56.70
6738;DHT22;3406;49.902;8.596;2023-02-26T11:12:45;4.10;56.30
6738;DHT22;3406;49.902;8.596;2023-02-26T11:15:14;4.10;55.60
6738;DHT22;3406;49.902;8.596;2023-02-26T11:17:40;4.10;55.30
6738;DHT22;3406;49.902;8.596;2023-02-26T11:20:18;4.10;54.60
6738;DHT22;3406;49.902;8.596;2023-02-26T11:22:46;4.10;54.70
6738;DHT22;3406;49.902;8.596;2023-02-26T11:25:17;4.20;54.90
6738;DHT22;3406;49.902;8.596;2023-02-26T11:27:48;4.40;54.50
6738;DHT22;3406;49.902;8.596;2023-02-26T11:30:16;4.40;54.30
6738;DHT22;3406;49.902;8.596;2023-02-26T11:32:45;4.50;54.20
6738;DHT22;3406;49.902;8.596;2023-02-26T11:35:18;4.60;54.00
6738;DHT22;3406;49.902;8.596;2023-02-26T11:37:47;4.70;54.00
6738;DHT22;3406;49.902;8.596;2023-02-26T11:40:17;4.70;53.80
6738;DHT22;3406;49.902;8.596;2023-02-26T11:42:48;4.70;53.80
6738;DHT22;3406;49.902;8.596;2023-02-26T11:45:18;4.80;53.90
6738;DHT22;3406;49.902;8.596;2023-02-26T11:47:46;4.70;53.70
6738;DHT22;3406;49.902;8.596;2023-02-26T11:50:17;4.70;53.50
6738;DHT22;3406;49.902;8.596;2023-02-26T11:52:46;4.60;53.40
6738;DHT22;3406;49.902;8.596;2023-02-26T11:55:19;4.60;53.90
6738;DHT22;3406;49.902;8.596;2023-02-26T11:57:50;4.60;53.10
6738;DHT22;3406;49.902;8.596;2023-02-26T12:00:20;4.60;53.20
6738;DHT22;3406;49.902;8.596;2023-02-26T12:02:48;4.60;53.20
6738;DHT22;3406;49.902;8.596;2023-02-26T12:05:17;4.60;53.00
6738;DHT22;3406;49.902;8.596;2023-02-26T12:07:44;4.60;52.90
6738;DHT22;3406;49.902;8.596;2023-02-26T12:10:16;4.60;53.00
6738;DHT22;3406;49.902;8.596;2023-02-26T12:12:58;4.60;52.90
6738;DHT22;3406;49.902;8.596;2023-02-26T12:15:31;4.60;53.00
6738;DHT22;3406;49.902;8.596;2023-02-26T12:18:14;4.70;53.00
6738;DHT22;3406;49.902;8.596;2023-02-26T12:20:51;4.80;52.80
6738;DHT22;3406;49.902;8.596;2023-02-26T12:23:33;4.80;52.50
6738;DHT22;3406;49.902;8.596;2023-02-26T12:26:16;4.80;52.40
6738;DHT22;3406;49.902;8.596;2023-02-26T12:31:55;5.00;52.10
6738;DHT22;3406;49.902;8.596;2023-02-26T12:34:36;5.10;52.10
6738;DHT22;3406;49.902;8.596;2023-02-26T12:37:24;5.20;51.80
6738;DHT22;3406;49.902;8.596;2023-02-26T12:40:05;5.40;52.00
6738;DHT22;3406;49.902;8.596;2023-02-26T12:42:43;5.50;52.00
6738;DHT22;3406;49.902;8.596;2023-02-26T12:45:32;5.70;52.10
6738;DHT22;3406;49.902;8.596;2023-02-26T12:48:16;5.90;51.90
6738;DHT22;3406;49.902;8.596;2023-02-26T12:50:57;6.00;51.70
6738;DHT22;3406;49.902;8.596;2023-02-26T12:54:00;5.90;51.00
6738;DHT22;3406;49.902;8.596;2023-02-26T12:56:46;5.80;51.00
6738;DHT22;3406;49.902;8.596;2023-02-26T12:59:35;5.70;51.10
6738;DHT22;3406;49.902;8.596;2023-02-26T13:02:49;5.60;51.10
6738;DHT22;3406;49.902;8.596;2023-02-26T13:05:35;5.70;51.00
6738;DHT22;3406;49.902;8.596;2023-02-26T13:08:13;5.90;51.00
6738;DHT22;3406;49.902;8.596;2023-02-26T13:10:52;5.90;50.60
6738;DHT22;3406;49.902;8.596;2023-02-26T13:13:49;5.80;50.40
6738;DHT22;3406;49.902;8.596;2023-02-26T13:16:28;5.70;50.20
6738;DHT22;3406;49.902;8.596;2023-02-26T13:19:04;5.60;50.20
6738;DHT22;3406;49.902;8.596;2023-02-26T13:21:36;5.50;50.10
6738;DHT22;3406;49.902;8.596;2023-02-26T13:24:08;5.50;50.10
6738;DHT22;3406;49.902;8.596;2023-02-26T13:26:39;5.40;50.30
6738;DHT22;3406;49.902;8.596;2023-02-26T13:29:11;5.40;50.10
6738;DHT22;3406;49.902;8.596;2023-02-26T13:31:42;5.40;50.10
6738;DHT22;3406;49.902;8.596;2023-02-26T13:34:14;5.40;50.30
6738;DHT22;3406;49.902;8.596;2023-02-26T13:36:44;5.50;50.30
6738;DHT22;3406;49.902;8.596;2023-02-26T13:39:31;5.40;50.10
6738;DHT22;3406;49.902;8.596;2023-02-26T13:42:09;5.30;49.80
6738;DHT22;3406;49.902;8.596;2023-02-26T13:44:46;5.20;49.70
6738;DHT22;3406;49.902;8.596;2023-02-26T13:47:30;5.10;49.80
6738;DHT22;3406;49.902;8.596;2023-02-26T13:50:18;5.10;49.90
6738;DHT22;3406;49.902;8.596;2023-02-26T13:52:51;5.10;49.70
6738;DHT22;3406;49.902;8.596;2023-02-26T13:55:37;5.10;49.50
6738;DHT22;3406;49.902;8.596;2023-02-26T13:58:28;5.00;49.50
6738;DHT22;3406;49.902;8.596;2023-02-26T14:01:03;5.00;49.70
6738;DHT22;3406;49.902;8.596;2023-02-26T14:03:32;5.00;49.90
6738;DHT22;3406;49.902;8.596;2023-02-26T14:06:22;5.00;49.80
6738;DHT22;3406;49.902;8.596;2023-02-26T14:08:53;5.00;49.60
6738;DHT22;3406;49.902;8.596;2023-02-26T14:11:42;5.00;49.30
6738;DHT22;3406;49.902;8.596;2023-02-26T14:14:17;5.00;49.10
6738;DHT22;3406;49.902;8.596;2023-02-26T14:16:48;4.90;48.90
6738;DHT22;3406;49.902;8.596;2023-02-26T14:19:30;4.80;48.70
6738;DHT22;3406;49.902;8.596;2023-02-26T14:22:12;4.80;48.70
6738;DHT22;3406;49.902;8.596;2023-02-26T14:24:49;4.70;48.90
6738;DHT22;3406;49.902;8.596;2023-02-26T14:27:30;4.80;49.00
6738;DHT22;3406;49.902;8.596;2023-02-26T14:30:03;4.80;49.00
6738;DHT22;3406;49.902;8.596;2023-02-26T14:32:32;4.70;48.90
6738;DHT22;3406;49.902;8.596;2023-02-26T14:35:03;4.70;49.00
6738;DHT22;3406;49.902;8.596;2023-02-26T14:37:32;4.70;48.90
6738;DHT22;3406;49.902;8.596;2023-02-26T14:40:05;4.70;48.90
6738;DHT22;3406;49.902;8.596;2023-02-26T14:42:39;4.70;48.60
6738;DHT22;3406;49.902;8.596;2023-02-26T14:45:19;4.70;48.30
6738;DHT22;3406;49.902;8.596;2023-02-26T14:47:48;4.80;48.30
6738;DHT22;3406;49.902;8.596;2023-02-26T14:50:18;4.80;48.30
6738;DHT22;3406;49.902;8.596;2023-02-26T14:53:01;4.80;48.20
6738;DHT22;3406;49.902;8.596;2023-02-26T14:55:46;4.80;48.30
6738;DHT22;3406;49.902;8.596;2023-02-26T14:58:54;4.80;48.40
6738;DHT22;3406;49.902;8.596;2023-02-26T15:01:35;4.90;48.70
6738;DHT22;3406;49.902;8.596;2023-02-26T15:04:25;5.00;48.70
6738;DHT22;3406;49.902;8.596;2023-02-26T15:07:13;5.10;48.60
6738;DHT22;3406;49.902;8.596;2023-02-26T15:09:51;5.10;48.10
6738;DHT22;3406;49.902;8.596;2023-02-26T15:12:31;5.00;48.00
6738;DHT22;3406;49.902;8.596;2023-02-26T15:15:18;5.00;47.90
6738;DHT22;3406;49.902;8.596;2023-02-26T15:17:57;5.10;47.70
6738;DHT22;3406;49.902;8.596;2023-02-26T15:20:33;5.10;47.40
6738;DHT22;3406;49.902;8.596;2023-02-26T15:23:13;5.10;47.10
6738;DHT22;3406;49.902;8.596;2023-02-26T15:25:46;5.10;47.00
6738;DHT22;3406;49.902;8.596;2023-02-26T15:28:19;5.20;46.90
6738;DHT22;3406;49.902;8.596;2023-02-26T15:30:48;5.20;46.70
6738;DHT22;3406;49.902;8.596;2023-02-26T15:33:18;5.20;46.30
6738;DHT22;3406;49.902;8.596;2023-02-26T15:35:48;5.20;46.40
6738;DHT22;3406;49.902;8.596;2023-02-26T15:38:16;5.10;46.60
6738;DHT22;3406;49.902;8.596;2023-02-26T15:40:44;5.00;46.80
6738;DHT22;3406;49.902;8.596;2023-02-26T15:43:14;5.00;46.90
6738;DHT22;3406;49.902;8.596;2023-02-26T15:45:43;4.90;47.10
6738;DHT22;3406;49.902;8.596;2023-02-26T15:48:14;4.80;47.30
6738;DHT22;3406;49.902;8.596;2023-02-26T15:50:45;4.80;47.50
6738;DHT22;3406;49.902;8.596;2023-02-26T15:53:17;4.70;47.50
6738;DHT22;3406;49.902;8.596;2023-02-26T15:55:47;4.70;47.30
6738;DHT22;3406;49.902;8.596;2023-02-26T15:58:19;4.70;47.40
6738;DHT22;3406;49.902;8.596;2023-02-26T16:00:52;4.60;47.30
6738;DHT22;3406;49.902;8.596;2023-02-26T16:03:25;4.60;47.30
6738;DHT22;3406;49.902;8.596;2023-02-26T16:05:54;4.60;47.40
6738;DHT22;3406;49.902;8.596;2023-02-26T16:08:21;4.70;47.50
6738;DHT22;3406;49.902;8.596;2023-02-26T16:10:48;4.70;47.40
6738;DHT22;3406;49.902;8.596;2023-02-26T16:13:17;4.60;47.30
6738;DHT22;3406;49.902;8.596;2023-02-26T16:15:46;4.60;47.30
6738;DHT22;3406;49.902;8.596;2023-02-26T16:18:16;4.50;47.30
6738;DHT22;3406;49.902;8.596;2023-02-26T16:20:47;4.50;47.50
6738;DHT22;3406;49.902;8.596;2023-02-26T16:23:19;4.50;47.70
6738;DHT22;3406;49.902;8.596;2023-02-26T16:25:49;4.50;48.00
6738;DHT22;3406;49.902;8.596;2023-02-26T16:28:19;4.40;48.00
6738;DHT22;3406;49.902;8.596;2023-02-26T16:30:48;4.30;48.00
6738;DHT22;3406;49.902;8.596;2023-02-26T16:33:16;4.30;48.10
6738;DHT22;3406;49.902;8.596;2023-02-26T16:35:46;4.30;48.30
6738;DHT22;3406;49.902;8.596;2023-02-26T16:38:19;4.20;48.30
6738;DHT22;3406;49.902;8.596;2023-02-26T16:40:55;4.20;48.40
6738;DHT22;3406;49.902;8.596;2023-02-26T16:43:35;4.10;48.40
6738;DHT22;3406;49.902;8.596;2023-02-26T16:46:10;4.00;48.40
6738;DHT22;3406;49.902;8.596;2023-02-26T16:48:46;4.00;48.40
6738;DHT22;3406;49.902;8.596;2023-02-26T16:51:15;4.00;48.50
6738;DHT22;3406;49.902;8.596;2023-02-26T16:53:48;3.90;48.60